METAR Data
IDs: Format: Raw Decoded Include TAF

Data at: 0245 UTC 25 Jan 2020

METAR for:KCSQ (Creston Muni, IA, US)
Text:KCSQ 250235Z AUTO 32014KT 10SM -UP OVC012 M01/M01 A2999 RMK AO2
Temperature: -1.0°C ( 30°F)
Dewpoint: -1.0°C ( 30°F) [RH = 100%]
Pressure (altimeter):29.99 inches Hg (1015.7 mb)
Winds:from the NW (320 degrees) at 16 MPH (14 knots; 7.2 m/s)
Visibility:10 or more sm (16+ km)
Ceiling:1200 feet AGL
Clouds: overcast cloud deck at 1200 feet AGL
Weather:UP (unknown precipitation)
QC Flag:automated observation with no human augmentation